createdAt,value
2023-01-30T00:01:57.291Z,14.07
2023-01-30T00:04:27.010Z,13.73
2023-01-30T00:06:55.315Z,14.75
2023-01-30T00:09:23.710Z,13.90
2023-01-30T00:11:52.066Z,13.68
2023-01-30T00:14:20.318Z,13.23
2023-01-30T00:16:48.567Z,13.10
2023-01-30T00:19:16.881Z,12.85
2023-01-30T00:21:46.614Z,13.88
2023-01-30T00:24:15.161Z,14.15
2023-01-30T00:26:43.425Z,14.57
2023-01-30T00:29:11.711Z,13.38
2023-01-30T00:31:40.049Z,13.75
2023-01-30T00:34:08.605Z,13.20
2023-01-30T00:36:36.876Z,13.20
2023-01-30T00:39:06.777Z,13.55
2023-01-30T00:41:48.973Z,14.75
2023-01-30T00:44:34.736Z,13.73
2023-01-30T00:47:08.699Z,14.57
2023-01-30T00:49:37.866Z,12.98
2023-01-30T00:52:07.021Z,13.57
2023-01-30T00:54:36.688Z,14.20
2023-01-30T00:57:05.123Z,13.90
2023-01-30T00:59:33.396Z,14.43
2023-01-30T01:02:01.844Z,14.18
2023-01-30T01:04:30.235Z,14.63
2023-01-30T01:06:58.521Z,13.95
2023-01-30T01:09:26.910Z,14.38
2023-01-30T01:11:56.534Z,14.50
2023-01-30T01:14:24.927Z,13.35
2023-01-30T01:16:53.299Z,13.93
2023-01-30T01:19:24.055Z,13.97
2023-01-30T01:21:52.303Z,14.23
2023-01-30T01:24:20.623Z,13.68
2023-01-30T01:26:48.979Z,14.45
2023-01-30T01:29:18.988Z,13.70
2023-01-30T01:31:47.766Z,14.48
2023-01-30T01:34:17.445Z,13.88
2023-01-30T01:36:54.392Z,15.30
2023-01-30T01:39:23.481Z,14.35
2023-01-30T01:41:51.833Z,13.93
2023-01-30T01:44:21.458Z,13.95
2023-01-30T01:46:52.886Z,15.23
2023-01-30T01:49:25.284Z,14.15
2023-01-30T01:51:58.175Z,13.75
2023-01-30T01:54:31.061Z,14.85
2023-01-30T01:57:02.771Z,14.15
2023-01-30T01:59:35.752Z,14.13
2023-01-30T02:02:10.013Z,14.43
2023-01-30T02:04:58.194Z,14.85
2023-01-30T02:07:27.337Z,14.38
2023-01-30T02:09:55.705Z,14.60
2023-01-30T02:12:24.079Z,14.85
2023-01-30T02:14:57.289Z,14.38
2023-01-30T02:17:25.657Z,14.30
2023-01-30T02:20:01.975Z,14.23
2023-01-30T02:22:50.354Z,15.13
2023-01-30T02:25:43.182Z,14.20
2023-01-30T02:28:39.029Z,14.95
2023-01-30T02:31:25.628Z,14.13
2023-01-30T02:34:04.951Z,15.10
2023-01-30T02:36:47.745Z,15.07
2023-01-30T02:39:26.523Z,15.18
2023-01-30T02:42:01.825Z,15.02
2023-01-30T02:44:38.692Z,16.50
2023-01-30T02:47:13.301Z,14.05
2023-01-30T02:49:47.091Z,15.38
2023-01-30T02:52:18.177Z,15.80
2023-01-30T02:54:47.606Z,14.43
2023-01-30T02:57:21.935Z,15.25
2023-01-30T02:59:58.557Z,15.02
2023-01-30T03:02:50.752Z,15.18
2023-01-30T03:05:37.192Z,14.95
2023-01-30T03:08:19.178Z,15.55
2023-01-30T03:13:30.566Z,13.48
2023-01-30T03:16:04.843Z,14.77
2023-01-30T03:18:34.563Z,15.02
2023-01-30T03:21:06.640Z,14.77
2023-01-30T03:23:35.381Z,14.73
2023-01-30T03:26:07.122Z,14.38
2023-01-30T03:28:37.638Z,14.70
2023-01-30T03:31:06.355Z,16.08
2023-01-30T03:33:36.141Z,14.40
2023-01-30T03:36:05.513Z,13.93
2023-01-30T03:38:35.495Z,14.93
2023-01-30T03:41:04.422Z,15.15
2023-01-30T03:43:39.130Z,15.38
2023-01-30T03:46:07.806Z,15.18
2023-01-30T03:48:37.566Z,14.88
2023-01-30T03:51:08.548Z,14.87
2023-01-30T03:53:36.917Z,15.25
2023-01-30T03:56:06.904Z,15.25
2023-01-30T03:58:37.262Z,15.27
2023-01-30T04:01:17.869Z,15.32
2023-01-30T04:03:47.680Z,14.40
2023-01-30T04:06:16.974Z,15.70
2023-01-30T04:08:46.325Z,14.85
2023-01-30T04:11:27.447Z,13.83
2023-01-30T04:13:56.092Z,14.70
2023-01-30T04:16:26.780Z,14.55
2023-01-30T04:19:19.004Z,14.98
2023-01-30T04:21:47.552Z,14.93
2023-01-30T04:24:15.905Z,14.43
2023-01-30T04:26:44.148Z,14.90
2023-01-30T04:29:12.577Z,15.90
2023-01-30T04:31:41.934Z,14.90
2023-01-30T04:34:30.384Z,14.60
2023-01-30T04:36:59.033Z,14.60
2023-01-30T04:39:28.832Z,14.38
2023-01-30T04:41:57.128Z,15.27
2023-01-30T04:44:26.204Z,15.15
2023-01-30T04:47:09.325Z,14.30
2023-01-30T04:49:39.072Z,15.27
2023-01-30T04:52:08.798Z,14.48
2023-01-30T04:54:37.996Z,14.77
2023-01-30T04:57:06.734Z,15.05
2023-01-30T04:59:35.375Z,14.82
2023-01-30T05:02:07.024Z,15.43
2023-01-30T05:04:35.770Z,14.15
2023-01-30T05:07:05.336Z,14.75
2023-01-30T05:09:33.664Z,13.57
2023-01-30T05:12:01.957Z,14.70
2023-01-30T05:14:30.864Z,14.30
2023-01-30T05:16:59.325Z,14.10
2023-01-30T05:19:27.994Z,14.18
2023-01-30T05:21:56.401Z,14.10
2023-01-30T05:24:26.109Z,12.95
2023-01-30T05:26:54.594Z,13.98
2023-01-30T05:29:22.965Z,12.82
2023-01-30T05:31:51.289Z,13.50
2023-01-30T05:34:19.559Z,13.20
2023-01-30T05:36:47.932Z,13.80
2023-01-30T05:39:16.374Z,12.70
2023-01-30T05:41:46.126Z,13.18
2023-01-30T05:44:14.532Z,13.48
2023-01-30T05:46:42.835Z,13.13
2023-01-30T05:49:11.772Z,13.68
2023-01-30T05:51:40.030Z,12.82
2023-01-30T05:54:08.734Z,12.05
2023-01-30T05:56:37.102Z,12.02
2023-01-30T05:59:06.889Z,12.23
2023-01-30T06:01:35.189Z,12.50
2023-01-30T06:04:03.523Z,12.85
2023-01-30T06:06:31.781Z,12.10
2023-01-30T06:09:00.096Z,13.02
2023-01-30T06:11:28.551Z,12.15
2023-01-30T06:13:56.826Z,12.73
2023-01-30T06:16:26.558Z,12.23
2023-01-30T06:18:54.890Z,12.40
2023-01-30T06:21:23.406Z,11.95
2023-01-30T06:23:51.691Z,12.50
2023-01-30T06:26:20.016Z,11.80
2023-01-30T06:28:48.376Z,11.77
2023-01-30T06:31:16.909Z,11.82
2023-01-30T06:33:46.614Z,11.90
2023-01-30T06:36:14.906Z,12.25
2023-01-30T06:38:43.201Z,11.13
2023-01-30T06:41:11.525Z,11.23
2023-01-30T06:43:39.888Z,12.20
2023-01-30T06:46:08.244Z,10.93
2023-01-30T06:48:36.720Z,12.32
2023-01-30T06:51:06.709Z,13.13
2023-01-30T06:53:35.088Z,12.32
2023-01-30T06:56:04.000Z,11.70
2023-01-30T06:58:32.357Z,11.52
2023-01-30T07:01:02.509Z,11.23
2023-01-30T07:03:30.863Z,11.23
2023-01-30T07:05:59.231Z,11.57
2023-01-30T07:08:29.033Z,11.25
2023-01-30T07:10:57.248Z,12.13
2023-01-30T07:13:25.698Z,11.20
2023-01-30T07:15:54.102Z,11.98
2023-01-30T07:18:22.473Z,11.75
2023-01-30T07:20:51.241Z,11.65
2023-01-30T07:23:19.612Z,11.50
2023-01-30T07:25:49.389Z,11.18
2023-01-30T07:28:17.768Z,11.65
2023-01-30T07:30:46.249Z,11.05
2023-01-30T07:33:14.735Z,10.45
2023-01-30T07:35:43.034Z,11.40
2023-01-30T07:38:11.257Z,10.77
2023-01-30T07:40:39.540Z,10.27
2023-01-30T07:43:11.629Z,11.20
2023-01-30T07:45:42.822Z,10.15
2023-01-30T07:48:12.720Z,11.70
2023-01-30T07:50:41.629Z,10.00
2023-01-30T07:53:12.680Z,11.00
2023-01-30T07:55:42.009Z,10.52
2023-01-30T07:58:14.559Z,10.75
2023-01-30T08:00:43.005Z,11.48
2023-01-30T08:03:13.674Z,10.77
2023-01-30T08:05:42.031Z,12.13
2023-01-30T08:08:10.500Z,19.73
2023-01-30T08:10:38.888Z,57.58
2023-01-30T08:13:07.157Z,88.97
2023-01-30T08:15:36.885Z,61.03
2023-01-30T08:18:07.239Z,66.82
2023-01-30T08:20:35.896Z,67.65
2023-01-30T08:23:04.305Z,46.92
2023-01-30T08:25:32.624Z,28.73
2023-01-30T08:28:01.358Z,18.40
2023-01-30T08:30:30.616Z,15.07
2023-01-30T08:33:00.740Z,14.10
2023-01-30T08:35:29.361Z,11.45
2023-01-30T08:37:57.848Z,11.10
2023-01-30T08:40:26.609Z,9.82
2023-01-30T08:42:55.229Z,10.02
2023-01-30T08:45:23.775Z,10.18
2023-01-30T08:47:52.317Z,8.90
2023-01-30T08:50:22.307Z,9.65
2023-01-30T08:52:50.564Z,10.02
2023-01-30T08:55:39.301Z,9.98
2023-01-30T08:58:07.645Z,9.25
2023-01-30T09:00:36.070Z,10.25
2023-01-30T09:03:04.539Z,9.48
2023-01-30T09:05:34.256Z,9.60
2023-01-30T09:08:02.554Z,9.18
2023-01-30T09:10:30.962Z,10.20
2023-01-30T09:12:59.254Z,9.20
2023-01-30T09:15:27.530Z,9.30
2023-01-30T09:17:55.848Z,8.93
2023-01-30T09:20:25.731Z,9.40
2023-01-30T09:22:55.537Z,8.68
2023-01-30T09:25:24.034Z,8.93
2023-01-30T09:27:52.823Z,8.77
2023-01-30T09:30:21.675Z,9.02
2023-01-30T09:32:50.115Z,8.75
2023-01-30T09:35:18.638Z,8.50
2023-01-30T09:37:50.355Z,9.27
2023-01-30T09:40:24.388Z,8.93
2023-01-30T09:43:28.571Z,8.90
2023-01-30T09:46:14.531Z,8.80
2023-01-30T09:48:54.277Z,9.30
2023-01-30T09:51:40.532Z,9.02
2023-01-30T09:54:24.499Z,9.35
2023-01-30T09:57:22.211Z,8.65
2023-01-30T09:59:57.268Z,8.25
2023-01-30T10:02:51.056Z,7.60
2023-01-30T10:05:19.559Z,7.32
2023-01-30T10:08:02.391Z,7.28
2023-01-30T10:10:51.029Z,7.10
2023-01-30T10:13:43.774Z,7.60
2023-01-30T10:16:19.670Z,6.90
2023-01-30T10:19:11.268Z,7.35
2023-01-30T10:21:47.676Z,6.13
2023-01-30T10:24:39.505Z,6.55
2023-01-30T10:27:13.093Z,6.72
2023-01-30T10:29:47.634Z,6.47
2023-01-30T10:32:19.743Z,6.13
2023-01-30T10:34:52.182Z,6.07
2023-01-30T10:37:28.045Z,5.97
2023-01-30T10:40:04.390Z,5.70
2023-01-30T10:42:40.214Z,6.20
2023-01-30T10:45:16.098Z,5.05
2023-01-30T10:47:56.034Z,5.75
2023-01-30T10:50:29.524Z,5.80
2023-01-30T10:53:03.721Z,5.25
2023-01-30T10:55:38.258Z,5.30
2023-01-30T10:58:23.582Z,5.18
2023-01-30T11:01:00.848Z,4.55
2023-01-30T11:03:38.887Z,4.97
2023-01-30T11:06:12.772Z,4.32
2023-01-30T11:08:41.095Z,4.40
2023-01-30T11:11:26.418Z,4.07
2023-01-30T11:14:06.514Z,4.70
2023-01-30T11:16:45.822Z,4.90
2023-01-30T11:19:21.115Z,4.80
2023-01-30T11:21:51.991Z,5.22
2023-01-30T11:24:31.925Z,4.93
2023-01-30T11:27:11.567Z,4.68
2023-01-30T11:29:40.926Z,4.15
2023-01-30T11:32:16.091Z,4.65
2023-01-30T11:34:45.365Z,3.83
2023-01-30T11:37:16.963Z,4.25
2023-01-30T11:42:21.677Z,3.88
2023-01-30T11:45:10.709Z,3.55
2023-01-30T11:47:57.195Z,3.97
2023-01-30T11:50:34.912Z,4.20
2023-01-30T11:53:08.578Z,4.00
2023-01-30T11:55:39.781Z,3.97
2023-01-30T12:00:43.349Z,3.72
2023-01-30T12:03:17.150Z,3.97
2023-01-30T12:05:47.853Z,4.18
2023-01-30T12:08:40.740Z,4.70
2023-01-30T12:11:30.178Z,3.65
2023-01-30T12:14:09.622Z,3.78
2023-01-30T12:16:53.963Z,4.05
2023-01-30T12:19:35.011Z,4.38
2023-01-30T12:22:12.669Z,4.00
2023-01-30T12:24:46.297Z,4.20
2023-01-30T12:27:22.185Z,3.90
2023-01-30T12:30:00.927Z,4.35
2023-01-30T12:32:31.820Z,4.07
2023-01-30T12:35:02.919Z,3.83
2023-01-30T12:37:47.017Z,3.65
2023-01-30T12:40:31.576Z,3.95
2023-01-30T12:43:23.900Z,4.18
2023-01-30T12:46:04.057Z,4.50
2023-01-30T12:49:07.716Z,3.92
2023-01-30T12:51:55.710Z,4.10
2023-01-30T12:54:42.438Z,3.90
2023-01-30T12:57:18.594Z,4.88
2023-01-30T12:59:56.993Z,4.15
2023-01-30T13:02:50.117Z,4.35
2023-01-30T13:05:35.897Z,3.90
2023-01-30T13:08:15.924Z,3.70
2023-01-30T13:10:51.078Z,3.83
2023-01-30T13:13:24.135Z,3.83
2023-01-30T13:16:02.296Z,4.50
2023-01-30T13:18:37.884Z,4.07
2023-01-30T13:21:12.839Z,4.32
2023-01-30T13:23:55.414Z,3.88
2023-01-30T13:26:28.512Z,3.72
2023-01-30T13:29:00.263Z,3.58
2023-01-30T13:31:33.201Z,4.05
2023-01-30T13:34:07.056Z,4.03
2023-01-30T13:36:41.660Z,4.10
2023-01-30T13:41:56.719Z,3.30
2023-01-30T13:44:30.812Z,3.50
2023-01-30T13:47:04.663Z,3.50
2023-01-30T13:49:40.715Z,3.13
2023-01-30T13:52:16.589Z,3.50
2023-01-30T13:54:54.406Z,3.08
2023-01-30T13:57:30.946Z,2.55
2023-01-30T14:00:29.419Z,2.95
2023-01-30T14:03:25.279Z,3.00
2023-01-30T14:06:26.239Z,2.90
2023-01-30T14:08:59.544Z,2.80
2023-01-30T14:11:36.341Z,3.00
2023-01-30T14:14:20.916Z,2.88
2023-01-30T14:16:51.973Z,2.35
2023-01-30T14:19:42.075Z,2.70
2023-01-30T14:22:29.876Z,2.92
2023-01-30T14:25:46.855Z,2.70
2023-01-30T14:28:46.088Z,2.97
2023-01-30T14:31:52.393Z,2.83
2023-01-30T14:34:44.168Z,2.63
2023-01-30T14:39:57.840Z,2.92
2023-01-30T14:42:28.152Z,3.35
2023-01-30T14:45:00.241Z,3.00
2023-01-30T14:47:34.122Z,3.42
2023-01-30T14:50:20.827Z,3.22
2023-01-30T14:52:50.392Z,2.70
2023-01-30T14:58:18.658Z,2.92
2023-01-30T15:00:48.520Z,3.05
2023-01-30T15:03:21.156Z,3.17
2023-01-30T15:05:49.642Z,3.10
2023-01-30T15:08:22.040Z,3.22
2023-01-30T15:11:06.624Z,3.10
2023-01-30T15:13:53.335Z,3.50
2023-01-30T15:16:51.241Z,3.13
2023-01-30T15:19:36.877Z,3.33
2023-01-30T15:22:17.260Z,3.03
2023-01-30T15:25:05.817Z,3.83
2023-01-30T15:27:44.506Z,3.35
2023-01-30T15:30:23.024Z,3.72
2023-01-30T15:33:19.930Z,3.70
2023-01-30T15:35:51.287Z,3.67
2023-01-30T15:38:28.233Z,3.20
2023-01-30T15:40:59.031Z,3.83
2023-01-30T15:43:54.619Z,4.05
2023-01-30T15:46:30.053Z,4.03
2023-01-30T15:49:14.942Z,3.85
2023-01-30T15:51:43.657Z,3.65
2023-01-30T15:54:16.271Z,4.18
2023-01-30T15:56:48.816Z,4.10
2023-01-30T15:59:31.650Z,4.20
2023-01-30T16:02:02.361Z,3.83
2023-01-30T16:04:32.491Z,4.15
2023-01-30T16:07:01.007Z,4.00
2023-01-30T16:09:29.256Z,3.88
2023-01-30T16:11:57.567Z,4.03
2023-01-30T16:14:26.409Z,4.30
2023-01-30T16:17:00.240Z,4.72
2023-01-30T16:19:32.913Z,4.35
2023-01-30T16:22:04.074Z,4.63
2023-01-30T16:24:34.156Z,4.43
2023-01-30T16:27:04.403Z,4.13
2023-01-30T16:29:35.733Z,3.97
2023-01-30T16:32:14.183Z,5.72
2023-01-30T16:34:45.204Z,4.75
2023-01-30T16:37:27.114Z,4.95
2023-01-30T16:40:14.256Z,4.32
2023-01-30T16:42:42.724Z,4.65
2023-01-30T16:46:02.045Z,4.70
2023-01-30T16:48:34.725Z,4.38
2023-01-30T16:51:23.720Z,4.30
2023-01-30T16:53:56.871Z,4.65
2023-01-30T16:56:25.721Z,4.28
2023-01-30T16:58:57.924Z,4.80
2023-01-30T17:01:38.222Z,5.05
2023-01-30T17:04:18.574Z,5.93
2023-01-30T17:06:54.416Z,5.15
2023-01-30T17:09:49.797Z,5.05
2023-01-30T17:12:38.521Z,5.10
2023-01-30T17:15:28.656Z,5.10
2023-01-30T17:17:57.348Z,4.47
2023-01-30T17:20:28.951Z,5.38
2023-01-30T17:23:02.276Z,4.85
2023-01-30T17:25:35.900Z,4.93
2023-01-30T17:28:04.430Z,4.57
2023-01-30T17:30:32.871Z,4.82
2023-01-30T17:33:01.239Z,5.05
2023-01-30T17:35:29.626Z,4.80
2023-01-30T17:38:05.284Z,25.35
2023-01-30T17:40:36.603Z,39.28
2023-01-30T17:43:05.179Z,82.63
2023-01-30T17:45:33.939Z,74.05
2023-01-30T17:48:02.304Z,66.72
2023-01-30T17:50:30.615Z,60.72
2023-01-30T17:53:00.419Z,43.45
2023-01-30T17:55:28.736Z,24.75
2023-01-30T17:57:57.327Z,60.20
2023-01-30T18:00:25.757Z,51.20
2023-01-30T18:02:54.261Z,40.25
2023-01-30T18:05:23.455Z,35.05
2023-01-30T18:07:51.789Z,54.83
2023-01-30T18:10:21.923Z,30.95
2023-01-30T18:12:50.329Z,19.52
2023-01-30T18:15:19.288Z,14.30
2023-01-30T18:17:49.561Z,11.95
2023-01-30T18:20:21.040Z,8.82
2023-01-30T18:22:50.231Z,7.82
2023-01-30T18:25:18.984Z,6.20
2023-01-30T18:27:48.751Z,5.32
2023-01-30T18:30:18.404Z,5.40
2023-01-30T18:32:53.787Z,4.60
2023-01-30T18:35:23.456Z,5.10
2023-01-30T18:37:52.051Z,4.60
2023-01-30T18:40:21.498Z,4.75
2023-01-30T18:42:51.561Z,4.20
2023-01-30T18:45:19.919Z,4.80
2023-01-30T18:47:48.343Z,4.78
2023-01-30T18:50:17.281Z,5.18
2023-01-30T18:52:47.036Z,4.38
2023-01-30T18:55:15.444Z,4.70
2023-01-30T18:57:43.698Z,4.82
2023-01-30T19:00:16.557Z,4.43
2023-01-30T19:02:45.939Z,4.30
2023-01-30T19:05:14.243Z,4.50
2023-01-30T19:07:42.517Z,3.90
2023-01-30T19:10:17.065Z,4.40
2023-01-30T19:13:03.954Z,3.92
2023-01-30T19:15:36.468Z,4.05
2023-01-30T19:18:04.866Z,3.60
2023-01-30T19:20:33.257Z,3.67
2023-01-30T19:23:01.595Z,3.80
2023-01-30T19:25:30.084Z,3.95
2023-01-30T19:27:58.351Z,3.50
2023-01-30T19:30:26.611Z,3.85
2023-01-30T19:32:59.173Z,4.18
2023-01-30T19:35:27.644Z,4.10
2023-01-30T19:38:00.309Z,4.25
2023-01-30T19:40:28.624Z,4.00
2023-01-30T19:43:05.613Z,3.85
2023-01-30T19:48:09.734Z,3.80
2023-01-30T19:50:38.812Z,4.15
2023-01-30T19:53:07.145Z,4.03
2023-01-30T19:55:35.548Z,4.53
2023-01-30T19:58:04.801Z,4.13
2023-01-30T20:00:33.111Z,4.22
2023-01-30T20:03:01.466Z,4.22
2023-01-30T20:05:31.132Z,3.80
2023-01-30T20:07:59.409Z,3.67
2023-01-30T20:10:27.649Z,3.78
2023-01-30T20:12:56.485Z,3.60
2023-01-30T20:15:24.796Z,3.63
2023-01-30T20:17:53.085Z,3.20
2023-01-30T20:20:21.728Z,3.42
2023-01-30T20:22:51.511Z,3.30
2023-01-30T20:25:19.899Z,3.65
2023-01-30T20:27:48.337Z,3.88
2023-01-30T20:30:19.743Z,3.72
2023-01-30T20:32:48.216Z,3.95
2023-01-30T20:35:17.738Z,3.65
2023-01-30T20:37:46.013Z,3.55
2023-01-30T20:40:16.943Z,3.90
2023-01-30T20:42:45.582Z,3.85
2023-01-30T20:45:13.852Z,3.33
2023-01-30T20:47:42.373Z,3.83
2023-01-30T20:50:13.698Z,6.22
2023-01-30T20:52:42.642Z,5.03
2023-01-30T20:55:11.478Z,5.00
2023-01-30T20:57:45.341Z,4.70
2023-01-30T21:00:14.555Z,4.30
2023-01-30T21:02:45.582Z,4.40
2023-01-30T21:05:13.875Z,3.65
2023-01-30T21:07:42.245Z,3.45
2023-01-30T21:10:11.853Z,3.40
2023-01-30T21:12:41.440Z,4.05
2023-01-30T21:15:10.624Z,3.47
2023-01-30T21:17:39.321Z,3.22
2023-01-30T21:20:08.289Z,3.50
2023-01-30T21:22:36.952Z,3.38
2023-01-30T21:25:05.511Z,3.75
2023-01-30T21:27:33.782Z,2.90
2023-01-30T21:30:03.402Z,3.17
2023-01-30T21:32:31.844Z,2.92
2023-01-30T21:35:00.094Z,3.28
2023-01-30T21:37:45.638Z,3.65
2023-01-30T21:40:32.952Z,3.63
2023-01-30T21:43:15.080Z,3.45
2023-01-30T21:45:44.789Z,3.03
2023-01-30T21:48:13.128Z,3.60
2023-01-30T21:50:41.397Z,3.15
2023-01-30T21:53:09.785Z,3.17
2023-01-30T21:55:38.021Z,3.13
2023-01-30T21:58:06.195Z,3.15
2023-01-30T22:00:34.719Z,3.30
2023-01-30T22:03:04.348Z,3.35
2023-01-30T22:05:36.516Z,3.70
2023-01-30T22:08:05.316Z,3.45
2023-01-30T22:10:33.565Z,3.38
2023-01-30T22:13:02.078Z,3.20
2023-01-30T22:15:30.325Z,3.60
2023-01-30T22:17:58.569Z,3.58
2023-01-30T22:20:28.310Z,3.63
2023-01-30T22:22:56.609Z,4.00
2023-01-30T22:25:24.791Z,3.63
2023-01-30T22:27:53.091Z,3.70
2023-01-30T22:30:21.389Z,3.70
2023-01-30T22:32:49.748Z,3.80
2023-01-30T22:35:18.425Z,3.75
2023-01-30T22:37:48.165Z,3.83
2023-01-30T22:40:16.784Z,3.38
2023-01-30T22:42:49.123Z,3.70
2023-01-30T22:45:17.824Z,3.38
2023-01-30T22:47:46.266Z,3.70
2023-01-30T22:50:14.604Z,3.33
2023-01-30T22:52:42.994Z,3.22
2023-01-30T22:55:12.740Z,3.38
2023-01-30T22:57:41.000Z,3.25
2023-01-30T23:00:11.274Z,3.22
2023-01-30T23:02:39.584Z,3.10
2023-01-30T23:05:09.011Z,3.00
2023-01-30T23:07:37.239Z,3.00
2023-01-30T23:10:06.194Z,2.50
2023-01-30T23:12:53.477Z,2.65
2023-01-30T23:15:21.855Z,2.90
2023-01-30T23:18:07.419Z,2.75
2023-01-30T23:20:35.700Z,2.72
2023-01-30T23:23:06.887Z,2.58
2023-01-30T23:25:35.535Z,2.58
2023-01-30T23:28:05.536Z,2.88
2023-01-30T23:30:33.900Z,2.53
2023-01-30T23:33:02.412Z,2.88
2023-01-30T23:35:30.893Z,2.67
2023-01-30T23:38:18.920Z,2.78
2023-01-30T23:40:48.467Z,2.50
2023-01-30T23:43:18.468Z,3.20
2023-01-30T23:45:46.821Z,2.80
2023-01-30T23:48:15.129Z,2.83
2023-01-30T23:50:43.405Z,3.15
2023-01-30T23:53:11.962Z,2.67
2023-01-30T23:55:40.173Z,2.92
2023-01-30T23:58:08.410Z,2.80
